createdAt,value
2023-05-16T00:00:38.096Z,10.3
2023-05-16T00:01:44.233Z,10.4
2023-05-16T00:03:56.512Z,10.4
2023-05-16T00:05:02.663Z,10.4
2023-05-16T00:06:08.810Z,10.4
2023-05-16T00:07:14.965Z,10.5
2023-05-16T00:11:39.521Z,10.4
2023-05-16T00:12:44.705Z,10.4
2023-05-16T00:14:56.981Z,10.4
2023-05-16T00:16:03.139Z,10.4
2023-05-16T00:17:09.261Z,10.5
2023-05-16T00:21:33.829Z,10.5
2023-05-16T00:22:39.976Z,10.5
2023-05-16T00:23:46.129Z,10.5
2023-05-16T00:27:04.555Z,10.5
2023-05-16T00:28:09.700Z,10.5
2023-05-16T00:30:22.009Z,10.6
2023-05-16T00:31:28.135Z,10.6
2023-05-16T00:38:05.002Z,10.7
2023-05-16T00:42:29.583Z,10.7
2023-05-16T00:44:40.868Z,10.7
2023-05-16T00:45:47.021Z,10.7
2023-05-16T00:46:53.169Z,10.7
2023-05-16T00:47:59.312Z,10.6
2023-05-16T00:52:23.900Z,10.6
2023-05-16T00:54:36.158Z,10.5
2023-05-16T01:00:06.893Z,10.5
2023-05-16T01:01:12.039Z,10.5
2023-05-16T01:02:18.187Z,10.5
2023-05-16T01:03:24.349Z,10.5
2023-05-16T01:04:30.458Z,10.5
2023-05-16T01:05:36.610Z,10.5
2023-05-16T01:07:48.899Z,10.5
2023-05-16T01:10:01.191Z,10.5
2023-05-16T01:11:07.332Z,10.5
2023-05-16T01:13:19.608Z,10.5
2023-05-16T01:15:31.896Z,10.6
2023-05-16T01:16:37.072Z,10.6
2023-05-16T01:17:43.198Z,10.7
2023-05-16T01:21:01.623Z,10.7
2023-05-16T01:22:07.783Z,10.8
2023-05-16T01:23:13.910Z,10.8
2023-05-16T01:24:20.052Z,10.8
2023-05-16T01:25:26.206Z,10.8
2023-05-16T01:26:32.569Z,10.8
2023-05-16T01:27:38.485Z,10.8
2023-05-16T01:29:50.767Z,10.8
2023-05-16T01:32:02.084Z,10.8
2023-05-16T01:34:14.350Z,10.8
2023-05-16T01:37:31.812Z,10.7
2023-05-16T01:38:36.979Z,10.7
2023-05-16T01:39:43.124Z,10.7
2023-05-16T01:40:49.262Z,10.7
2023-05-16T01:41:55.424Z,10.7
2023-05-16T01:44:07.688Z,10.7
2023-05-16T01:45:13.844Z,10.7
2023-05-16T01:46:19.990Z,10.7
2023-05-16T01:48:32.276Z,10.7
2023-05-16T01:50:44.545Z,10.7
2023-05-16T01:51:50.706Z,10.7
2023-05-16T01:54:01.995Z,10.8
2023-05-16T01:56:14.281Z,10.8
2023-05-16T01:59:32.714Z,10.8
2023-05-16T02:06:09.583Z,10.8
2023-05-16T02:07:14.732Z,10.8
2023-05-16T02:08:20.892Z,10.8
2023-05-16T02:09:27.032Z,10.7
2023-05-16T02:10:33.156Z,10.7
2023-05-16T02:13:51.615Z,10.7
2023-05-16T02:14:57.756Z,10.7
2023-05-16T02:16:03.900Z,10.7
2023-05-16T02:17:10.025Z,10.7
2023-05-16T02:18:16.171Z,10.7
2023-05-16T02:23:46.879Z,10.6
2023-05-16T02:24:52.042Z,10.6
2023-05-16T02:25:58.186Z,10.6
2023-05-16T02:27:04.324Z,10.6
2023-05-16T02:29:16.630Z,10.6
2023-05-16T02:30:22.745Z,10.6
2023-05-16T02:32:35.041Z,10.6
2023-05-16T02:33:41.176Z,10.6
2023-05-16T02:39:11.912Z,10.6
2023-05-16T02:40:17.058Z,10.6
2023-05-16T02:41:23.207Z,10.6
2023-05-16T02:43:35.501Z,10.6
2023-05-16T02:46:53.913Z,10.6
2023-05-16T02:49:06.217Z,10.6
2023-05-16T02:50:12.346Z,10.6
2023-05-16T02:54:36.918Z,10.6
2023-05-16T02:56:48.228Z,10.6
2023-05-16T02:59:00.519Z,10.6
2023-05-16T03:00:06.644Z,10.6
2023-05-16T03:03:25.077Z,10.7
2023-05-16T03:04:31.225Z,10.6
2023-05-16T03:06:43.513Z,10.6
2023-05-16T03:08:55.817Z,10.6
2023-05-16T03:11:07.103Z,10.6
2023-05-16T03:13:19.382Z,10.7
2023-05-16T03:16:37.814Z,10.6
2023-05-16T03:18:50.097Z,10.7
2023-05-16T03:19:56.249Z,10.6
2023-05-16T03:21:02.385Z,10.7
2023-05-16T03:22:08.551Z,10.7
2023-05-16T03:23:14.675Z,10.6
2023-05-16T03:24:19.868Z,10.6
2023-05-16T03:25:26.007Z,10.7
2023-05-16T03:27:38.264Z,10.7
2023-05-16T03:33:09.035Z,10.6
2023-05-16T03:34:15.197Z,10.6
2023-05-16T03:35:21.326Z,10.6
2023-05-16T03:36:27.462Z,10.6
2023-05-16T03:38:39.754Z,10.6
2023-05-16T03:39:44.909Z,10.6
2023-05-16T03:40:51.061Z,10.6
2023-05-16T03:41:57.202Z,10.6
2023-05-16T03:44:09.497Z,10.6
2023-05-16T03:46:21.781Z,10.7
2023-05-16T03:48:34.106Z,10.7
2023-05-16T03:49:40.202Z,10.7
2023-05-16T03:50:46.343Z,10.7
2023-05-16T03:52:58.628Z,10.7
2023-05-16T03:54:04.775Z,10.6
2023-05-16T03:55:09.965Z,10.6
2023-05-16T03:56:16.077Z,10.6
2023-05-16T03:57:22.245Z,10.6
2023-05-16T04:01:46.798Z,10.6
2023-05-16T04:02:52.936Z,10.6
2023-05-16T04:05:05.230Z,10.6
2023-05-16T04:06:11.373Z,10.6
2023-05-16T04:08:23.654Z,10.6
2023-05-16T04:10:34.960Z,10.6
2023-05-16T04:11:41.137Z,10.5
2023-05-16T04:12:47.242Z,10.6
2023-05-16T04:18:17.957Z,10.8
2023-05-16T04:19:24.108Z,10.8
2023-05-16T04:22:42.539Z,10.8
2023-05-16T04:24:53.845Z,10.8
2023-05-16T04:25:59.972Z,10.9
2023-05-16T04:27:06.128Z,10.9
2023-05-16T04:28:12.262Z,10.9
2023-05-16T04:29:18.403Z,10.9
2023-05-16T04:30:24.568Z,10.9
2023-05-16T04:33:42.977Z,10.8
2023-05-16T04:34:49.141Z,10.8
2023-05-16T04:35:55.266Z,10.8
2023-05-16T04:38:07.553Z,10.9
2023-05-16T04:39:12.724Z,10.9
2023-05-16T04:42:31.141Z,11
2023-05-16T04:43:37.284Z,11
2023-05-16T04:45:49.566Z,11
2023-05-16T04:48:01.862Z,11.1
2023-05-16T04:50:14.145Z,11.1
2023-05-16T04:52:26.435Z,11.2
2023-05-16T04:53:31.587Z,11.2
2023-05-16T04:55:43.887Z,11.3
2023-05-16T04:56:50.039Z,11.3
2023-05-16T04:57:56.163Z,11.3
2023-05-16T04:59:02.305Z,11.3
2023-05-16T05:00:08.464Z,11.3
2023-05-16T05:02:20.739Z,11.4
2023-05-16T05:03:26.892Z,11.4
2023-05-16T05:04:33.029Z,11.4
2023-05-16T05:07:51.471Z,11.4
2023-05-16T05:08:56.611Z,11.4
2023-05-16T05:10:02.754Z,11.4
2023-05-16T05:13:21.184Z,11.5
2023-05-16T05:14:27.341Z,11.5
2023-05-16T05:15:33.476Z,11.6
2023-05-16T05:17:45.760Z,11.5
2023-05-16T05:18:51.901Z,11.6
2023-05-16T05:19:57.080Z,11.6
2023-05-16T05:23:15.491Z,11.6
2023-05-16T05:24:21.652Z,11.6
2023-05-16T05:27:40.062Z,11.5
2023-05-16T05:28:46.215Z,11.5
2023-05-16T05:30:58.512Z,11.5
2023-05-16T05:32:04.650Z,11.5
2023-05-16T05:34:16.940Z,11.6
2023-05-16T05:35:22.101Z,11.6
2023-05-16T05:36:28.244Z,11.5
2023-05-16T05:39:46.704Z,11.5
2023-05-16T05:40:52.801Z,11.5
2023-05-16T05:41:58.962Z,11.6
2023-05-16T05:43:05.092Z,11.6
2023-05-16T05:44:11.234Z,11.6
2023-05-16T05:45:17.387Z,11.6
2023-05-16T05:47:29.663Z,11.6
2023-05-16T05:48:35.806Z,11.6
2023-05-16T05:51:53.260Z,11.7
2023-05-16T05:52:59.398Z,11.7
2023-05-16T05:56:17.833Z,11.7
2023-05-16T05:57:23.964Z,11.7
2023-05-16T05:58:30.118Z,11.7
2023-05-16T05:59:36.284Z,11.7
2023-05-16T06:01:48.537Z,11.7
2023-05-16T06:02:54.698Z,11.7
2023-05-16T06:03:59.852Z,11.7
2023-05-16T06:05:05.998Z,11.7
2023-05-16T06:07:18.280Z,11.7
2023-05-16T06:08:24.424Z,11.7
2023-05-16T06:12:49.158Z,11.8
2023-05-16T06:13:55.261Z,11.8
2023-05-16T06:17:13.682Z,11.8
2023-05-16T06:19:25.011Z,11.8
2023-05-16T06:20:31.138Z,11.8
2023-05-16T06:21:37.282Z,11.8
2023-05-16T06:23:49.575Z,11.8
2023-05-16T06:24:55.708Z,11.8
2023-05-16T06:27:07.995Z,11.8
2023-05-16T06:28:14.178Z,11.8
2023-05-16T06:29:20.276Z,11.9
2023-05-16T06:30:26.413Z,11.9
2023-05-16T06:31:32.562Z,11.9
2023-05-16T06:32:37.724Z,11.9
2023-05-16T06:33:43.876Z,11.9
2023-05-16T06:34:50.010Z,11.9
2023-05-16T06:41:26.871Z,12.1
2023-05-16T06:42:33.027Z,12.1
2023-05-16T06:43:39.163Z,12.1
2023-05-16T06:44:45.339Z,12.2
2023-05-16T06:46:57.587Z,12.3
2023-05-16T06:48:02.752Z,12.3
2023-05-16T06:49:08.890Z,12.3
2023-05-16T06:50:15.040Z,12.4
2023-05-16T06:51:21.175Z,12.4
2023-05-16T06:53:33.483Z,12.5
2023-05-16T06:54:39.733Z,12.5
2023-05-16T06:55:45.746Z,12.6
2023-05-16T06:56:51.928Z,12.6
2023-05-16T06:57:58.029Z,12.7
2023-05-16T06:59:04.225Z,12.7
2023-05-16T07:00:10.322Z,12.8
2023-05-16T07:02:22.612Z,12.7
2023-05-16T07:04:33.902Z,12.9
2023-05-16T07:05:40.061Z,12.9
2023-05-16T07:06:46.197Z,13
2023-05-16T07:07:52.352Z,13
2023-05-16T07:08:58.495Z,12.9
2023-05-16T07:11:10.773Z,12.9
2023-05-16T07:12:16.913Z,12.9
2023-05-16T07:13:23.047Z,13
2023-05-16T07:14:29.202Z,13
2023-05-16T07:15:35.334Z,13.1
2023-05-16T07:16:41.517Z,13.1
2023-05-16T07:17:46.678Z,13.1
2023-05-16T07:18:52.781Z,13.1
2023-05-16T07:19:58.925Z,13.1
2023-05-16T07:21:05.065Z,13.2
2023-05-16T07:22:11.231Z,13.1
2023-05-16T07:23:17.377Z,13.1
2023-05-16T07:24:23.498Z,13.1
2023-05-16T07:26:35.785Z,13.2
2023-05-16T07:27:41.933Z,13.2
2023-05-16T07:28:48.078Z,13.2
2023-05-16T07:29:54.224Z,13.3
2023-05-16T07:31:00.358Z,13.4
2023-05-16T07:32:05.526Z,13.5
2023-05-16T07:33:11.660Z,13.6
2023-05-16T07:34:16.863Z,13.7
2023-05-16T07:36:29.116Z,13.7
2023-05-16T07:37:34.280Z,13.7
2023-05-16T07:38:40.415Z,13.7
2023-05-16T07:39:46.560Z,13.6
2023-05-16T07:40:52.741Z,13.6
2023-05-16T07:43:05.037Z,13.8
2023-05-16T07:44:11.181Z,13.9
2023-05-16T07:45:17.384Z,13.9
2023-05-16T07:46:23.553Z,13.9
2023-05-16T07:47:28.779Z,14
2023-05-16T07:48:33.988Z,14.1
2023-05-16T07:49:39.897Z,14
2023-05-16T07:51:52.171Z,14.2
2023-05-16T07:52:58.313Z,14.2
2023-05-16T07:56:16.749Z,14.3
2023-05-16T07:57:22.922Z,14.5
2023-05-16T07:58:29.049Z,14.5
2023-05-16T07:59:35.216Z,14.6
2023-05-16T08:00:41.314Z,14.6
2023-05-16T08:01:47.471Z,14.7
2023-05-16T08:02:52.617Z,14.8
2023-05-16T08:03:58.759Z,14.7
2023-05-16T08:07:17.221Z,14.9
2023-05-16T08:08:23.341Z,15
2023-05-16T08:11:41.770Z,15.3
2023-05-16T08:12:47.913Z,15.3
2023-05-16T08:13:54.120Z,15.1
2023-05-16T08:15:00.218Z,15.1
2023-05-16T08:17:12.595Z,14.8
2023-05-16T08:18:17.639Z,14.7
2023-05-16T08:20:29.930Z,14.6
2023-05-16T08:21:36.069Z,14.5
2023-05-16T08:22:42.223Z,14.4
2023-05-16T08:24:54.497Z,14.3
2023-05-16T08:26:00.639Z,14.3
2023-05-16T08:28:12.928Z,14.3
2023-05-16T08:29:19.066Z,14.3
2023-05-16T08:30:25.248Z,14.3
2023-05-16T08:32:37.537Z,14.4
2023-05-16T08:33:43.667Z,14.5
2023-05-16T08:34:48.813Z,14.5
2023-05-16T08:35:54.932Z,14.4
2023-05-16T08:37:01.099Z,14.4
2023-05-16T08:38:07.226Z,14.3
2023-05-16T08:41:25.831Z,14.3
2023-05-16T08:42:31.953Z,14.3
2023-05-16T08:43:38.078Z,14.3
2023-05-16T08:44:44.096Z,14.3
2023-05-16T08:45:50.435Z,14.2
2023-05-16T08:46:56.379Z,14.2
2023-05-16T08:48:02.531Z,14.2
2023-05-16T08:49:07.668Z,14.2
2023-05-16T08:50:13.805Z,14.2
2023-05-16T08:52:26.102Z,14.1
2023-05-16T08:53:32.253Z,14.2
2023-05-16T08:55:44.544Z,14.4
2023-05-16T08:57:56.827Z,14.5
2023-05-16T09:00:09.232Z,14.5
2023-05-16T09:01:14.370Z,14.5
2023-05-16T09:02:20.419Z,14.6
2023-05-16T09:03:26.690Z,14.7
2023-05-16T09:05:39.003Z,14.8
2023-05-16T09:06:44.983Z,14.8
2023-05-16T09:07:51.124Z,14.8
2023-05-16T09:08:57.270Z,14.8
2023-05-16T09:10:03.545Z,14.9
2023-05-16T09:11:09.551Z,14.9
2023-05-16T09:12:15.720Z,15.1
2023-05-16T09:14:27.986Z,15.4
2023-05-16T09:15:34.167Z,15.5
2023-05-16T09:16:39.284Z,15.7
2023-05-16T09:18:51.586Z,16
2023-05-16T09:21:03.868Z,16.9
2023-05-16T09:22:10.012Z,17.7
2023-05-16T09:23:16.148Z,18.5
2023-05-16T09:26:34.605Z,19.9
2023-05-16T09:30:59.146Z,21.2
2023-05-16T09:32:04.319Z,21.1
2023-05-16T09:33:10.460Z,20.6
2023-05-16T09:34:16.599Z,19.9
2023-05-16T09:35:22.730Z,19.2
2023-05-16T09:36:28.890Z,18.6
2023-05-16T09:37:35.024Z,18.2
2023-05-16T09:39:47.312Z,17.1
2023-05-16T09:40:53.482Z,16.8
2023-05-16T09:43:05.733Z,16.4
2023-05-16T09:44:11.882Z,16.3
2023-05-16T09:47:30.312Z,15.7
2023-05-16T09:48:35.471Z,15.5
2023-05-16T09:49:41.647Z,15.4
2023-05-16T09:50:47.745Z,15.3
2023-05-16T09:51:53.902Z,15.1
2023-05-16T09:53:00.045Z,14.9
2023-05-16T09:55:12.349Z,14.7
2023-05-16T09:56:18.469Z,14.5
2023-05-16T09:57:24.619Z,14.3
2023-05-16T09:59:36.898Z,14.1
2023-05-16T10:00:43.049Z,13.9
2023-05-16T10:01:49.187Z,13.8
2023-05-16T10:02:54.391Z,13.8
2023-05-16T10:04:00.495Z,13.7
2023-05-16T10:05:06.627Z,13.6
2023-05-16T10:07:18.911Z,13.5
2023-05-16T10:09:31.195Z,13.4
2023-05-16T10:10:37.380Z,13.3
2023-05-16T10:11:43.479Z,13.2
2023-05-16T10:12:49.669Z,13.2
2023-05-16T10:13:55.768Z,13.2
2023-05-16T10:16:08.068Z,13.1
2023-05-16T10:17:13.215Z,13.1
2023-05-16T10:18:19.362Z,13
2023-05-16T10:19:25.533Z,13
2023-05-16T10:20:31.643Z,12.9
2023-05-16T10:22:43.929Z,12.8
2023-05-16T10:23:50.091Z,12.8
2023-05-16T10:24:56.208Z,12.8
2023-05-16T10:26:02.446Z,12.8
2023-05-16T10:27:08.503Z,12.8
2023-05-16T10:29:20.893Z,12.8
2023-05-16T10:30:26.930Z,12.8
2023-05-16T10:31:33.204Z,12.8
2023-05-16T10:32:38.230Z,12.8
2023-05-16T10:33:44.386Z,12.9
2023-05-16T10:34:50.520Z,12.9
2023-05-16T10:35:56.689Z,12.9
2023-05-16T10:37:02.851Z,13
2023-05-16T10:38:08.948Z,13
2023-05-16T10:39:15.086Z,13.1
2023-05-16T10:40:21.234Z,13.1
2023-05-16T10:41:27.381Z,13.2
2023-05-16T10:42:33.521Z,13.2
2023-05-16T10:45:51.955Z,13.5
2023-05-16T10:46:58.090Z,13.6
2023-05-16T10:48:04.241Z,13.6
2023-05-16T10:49:09.421Z,13.5
2023-05-16T10:50:15.526Z,13.6
2023-05-16T10:51:21.677Z,13.7
2023-05-16T10:54:40.103Z,13.7
2023-05-16T10:55:46.239Z,13.8
2023-05-16T10:56:52.402Z,13.9
2023-05-16T10:57:58.535Z,13.9
2023-05-16T10:59:04.688Z,14
2023-05-16T11:00:10.816Z,14.1
2023-05-16T11:01:16.959Z,14.1
2023-05-16T11:02:23.101Z,14.1
2023-05-16T11:03:29.249Z,14.1
2023-05-16T11:04:34.412Z,14.2
2023-05-16T11:05:40.546Z,14
2023-05-16T11:06:46.700Z,14
2023-05-16T11:07:52.835Z,14
2023-05-16T11:08:59.012Z,14
2023-05-16T11:10:05.121Z,14.1
2023-05-16T11:11:11.274Z,14.1
2023-05-16T11:12:17.422Z,14
2023-05-16T11:13:23.549Z,13.9
2023-05-16T11:14:29.709Z,13.8
2023-05-16T11:15:35.850Z,13.9
2023-05-16T11:16:41.012Z,13.9
2023-05-16T11:18:53.291Z,13.8
2023-05-16T11:19:58.465Z,13.8
2023-05-16T11:22:10.769Z,13.8
2023-05-16T11:23:16.907Z,13.7
2023-05-16T11:24:23.069Z,13.6
2023-05-16T11:25:29.192Z,13.6
2023-05-16T11:26:35.397Z,13.7
2023-05-16T11:27:41.718Z,13.7
2023-05-16T11:28:47.598Z,13.7
2023-05-16T11:29:52.786Z,13.6
2023-05-16T11:30:57.935Z,13.5
2023-05-16T11:32:04.068Z,13.6
2023-05-16T11:33:10.221Z,13.6
2023-05-16T11:35:22.504Z,13.5
2023-05-16T11:36:28.640Z,13.5
2023-05-16T11:37:34.821Z,13.4
2023-05-16T11:38:40.936Z,13.2
2023-05-16T11:39:47.071Z,13.2
2023-05-16T11:40:53.205Z,13.1
2023-05-16T11:44:11.818Z,13.1
2023-05-16T11:45:17.926Z,13.1
2023-05-16T11:46:23.102Z,13.1
2023-05-16T11:47:29.237Z,13.2
2023-05-16T11:48:35.385Z,13.3
2023-05-16T11:49:41.525Z,13.4
2023-05-16T11:51:53.792Z,13.6
2023-05-16T11:52:59.945Z,13.6
2023-05-16T11:54:06.093Z,13.7
2023-05-16T11:55:12.263Z,13.7
2023-05-16T11:59:36.945Z,13.6
2023-05-16T12:00:42.070Z,13.6
2023-05-16T12:01:48.199Z,13.7
2023-05-16T12:05:06.526Z,13.8
2023-05-16T12:06:12.670Z,13.8
2023-05-16T12:07:18.816Z,13.7
2023-05-16T12:09:31.106Z,13.8
2023-05-16T12:10:37.262Z,13.9
2023-05-16T12:12:49.547Z,13.9
2023-05-16T12:13:55.677Z,13.9
2023-05-16T12:16:07.959Z,14
2023-05-16T12:17:14.113Z,13.9
2023-05-16T12:18:19.271Z,13.8
2023-05-16T12:19:25.407Z,13.7
2023-05-16T12:21:37.710Z,13.6
2023-05-16T12:22:43.839Z,13.4
2023-05-16T12:23:49.980Z,13.4
2023-05-16T12:24:56.175Z,13.3
2023-05-16T12:26:02.271Z,13.3
2023-05-16T12:28:14.554Z,13.2
2023-05-16T12:29:20.709Z,13.2
2023-05-16T12:32:39.143Z,13.2
2023-05-16T12:33:44.300Z,13.3
2023-05-16T12:34:50.437Z,13.3
2023-05-16T12:38:08.991Z,13.2
2023-05-16T12:39:15.132Z,13.1
2023-05-16T12:40:21.295Z,13.1
2023-05-16T12:41:27.423Z,13.1
2023-05-16T12:42:33.710Z,13.1
2023-05-16T12:43:39.849Z,13.1
2023-05-16T12:44:45.974Z,13.1
2023-05-16T12:45:52.128Z,13
2023-05-16T12:46:58.274Z,13.1
2023-05-16T12:49:10.553Z,13
2023-05-16T12:51:22.833Z,13
2023-05-16T12:53:35.129Z,13
2023-05-16T12:59:05.824Z,13
2023-05-16T13:01:17.135Z,13
2023-05-16T13:02:23.303Z,13
2023-05-16T13:03:29.419Z,13
2023-05-16T13:06:47.873Z,12.9
2023-05-16T13:09:00.137Z,12.9
2023-05-16T13:10:06.300Z,12.9
2023-05-16T13:11:12.426Z,12.9
2023-05-16T13:13:24.710Z,12.9
2023-05-16T13:14:29.871Z,12.9
2023-05-16T13:15:36.018Z,12.9
2023-05-16T13:16:42.213Z,13
2023-05-16T13:17:48.340Z,13
2023-05-16T13:18:54.451Z,13
2023-05-16T13:21:06.778Z,13
2023-05-16T13:22:12.865Z,13
2023-05-16T13:24:25.176Z,13.1
2023-05-16T13:25:31.297Z,13.2
2023-05-16T13:26:37.467Z,13.2
2023-05-16T13:27:43.581Z,13.2
2023-05-16T13:28:48.743Z,13.3
2023-05-16T13:31:01.056Z,13.5
2023-05-16T13:32:07.183Z,13.5
2023-05-16T13:34:19.463Z,13.6
2023-05-16T13:35:25.649Z,13.7
2023-05-16T13:36:31.748Z,13.8
2023-05-16T13:38:44.031Z,13.9
2023-05-16T13:43:08.610Z,13.5
2023-05-16T13:44:14.753Z,13.4
2023-05-16T13:47:32.184Z,13.3
2023-05-16T13:49:44.475Z,13.4
2023-05-16T13:50:50.644Z,13.5
2023-05-16T13:53:02.915Z,13.6
2023-05-16T13:56:21.334Z,13.7
2023-05-16T13:58:33.618Z,13.8
2023-05-16T14:00:44.932Z,13.8
2023-05-16T14:02:57.210Z,13.9
2023-05-16T14:04:03.352Z,13.8
2023-05-16T14:05:09.498Z,13.9
2023-05-16T14:07:21.833Z,13.9
2023-05-16T14:08:27.959Z,13.9
2023-05-16T14:12:52.498Z,13.8
2023-05-16T14:13:58.651Z,13.7
2023-05-16T14:18:22.232Z,13.5
2023-05-16T14:19:28.384Z,13.4
2023-05-16T14:20:34.533Z,13.3
2023-05-16T14:22:46.817Z,13.3
2023-05-16T14:23:52.940Z,13.3
2023-05-16T14:28:17.549Z,13.3
2023-05-16T14:29:23.787Z,13.4
2023-05-16T14:30:29.922Z,13.4
2023-05-16T14:31:36.138Z,13.4
2023-05-16T14:32:42.217Z,13.4
2023-05-16T14:33:48.360Z,13.4
2023-05-16T14:37:06.776Z,13.4
2023-05-16T14:38:12.923Z,13.3
2023-05-16T14:39:19.077Z,13.2
2023-05-16T14:40:25.221Z,13.1
2023-05-16T14:42:37.501Z,13.1
2023-05-16T14:45:54.990Z,13
2023-05-16T14:47:01.079Z,13
2023-05-16T14:49:13.374Z,13
2023-05-16T14:50:19.523Z,13
2023-05-16T14:52:31.796Z,13.1
2023-05-16T14:53:37.942Z,13.1
2023-05-16T14:54:44.080Z,13
2023-05-16T14:56:56.374Z,12.9
2023-05-16T14:58:01.530Z,12.8
2023-05-16T15:01:19.957Z,12.9
2023-05-16T15:02:26.103Z,13
2023-05-16T15:03:32.246Z,13
2023-05-16T15:05:44.586Z,13
2023-05-16T15:06:50.686Z,13
2023-05-16T15:07:56.881Z,13
2023-05-16T15:09:02.971Z,13
2023-05-16T15:10:09.102Z,13
2023-05-16T15:11:15.239Z,12.9
2023-05-16T15:13:26.543Z,12.9
2023-05-16T15:14:32.709Z,13
2023-05-16T15:17:51.122Z,13.1
2023-05-16T15:22:15.696Z,13.3
2023-05-16T15:23:21.819Z,13.3
2023-05-16T15:24:28.055Z,13.3
2023-05-16T15:26:40.261Z,13.4
2023-05-16T15:27:46.427Z,13.4
2023-05-16T15:28:51.586Z,13.3
2023-05-16T15:29:57.720Z,13.3
2023-05-16T15:31:03.858Z,13.3
2023-05-16T15:32:10.006Z,13.3
2023-05-16T15:34:22.452Z,13.3
2023-05-16T15:36:34.565Z,13.4
2023-05-16T15:37:40.756Z,13.4
2023-05-16T15:38:46.865Z,13.4
2023-05-16T15:39:53.007Z,13.5
2023-05-16T15:40:59.133Z,13.6
2023-05-16T15:42:05.282Z,13.6
2023-05-16T15:43:10.446Z,13.7
2023-05-16T15:44:16.603Z,13.8
2023-05-16T15:45:22.720Z,13.8
2023-05-16T15:46:28.875Z,13.8
2023-05-16T15:47:35.021Z,13.8
2023-05-16T15:48:41.162Z,13.8
2023-05-16T15:50:53.453Z,13.8
2023-05-16T15:51:59.585Z,13.8
2023-05-16T15:53:05.885Z,13.8
2023-05-16T15:54:11.901Z,13.6
2023-05-16T15:55:18.012Z,13.7
2023-05-16T15:56:24.238Z,13.8
2023-05-16T15:58:35.580Z,13.8
2023-05-16T15:59:41.745Z,13.9
2023-05-16T16:01:53.897Z,13.9
2023-05-16T16:03:00.040Z,13.8
2023-05-16T16:04:06.176Z,13.7
2023-05-16T16:05:12.359Z,13.7
2023-05-16T16:07:24.614Z,13.6
2023-05-16T16:08:30.750Z,13.5
2023-05-16T16:09:37.042Z,13.5
2023-05-16T16:11:49.176Z,13.3
2023-05-16T16:12:54.349Z,13.3
2023-05-16T16:14:00.474Z,13.2
2023-05-16T16:15:06.640Z,13.2
2023-05-16T16:16:12.847Z,13.2
2023-05-16T16:17:18.908Z,13.1
2023-05-16T16:18:25.058Z,13
2023-05-16T16:19:31.512Z,13
2023-05-16T16:20:37.337Z,13
2023-05-16T16:21:43.521Z,12.9
2023-05-16T16:23:55.769Z,12.5
2023-05-16T16:26:07.076Z,12.5
2023-05-16T16:27:13.258Z,12.5
2023-05-16T16:29:24.533Z,12.5
2023-05-16T16:30:29.766Z,12.5
2023-05-16T16:31:35.860Z,12.4
2023-05-16T16:32:41.987Z,12.4
2023-05-16T16:33:48.126Z,12.4
2023-05-16T16:34:54.380Z,12.5
2023-05-16T16:37:06.573Z,12.4
2023-05-16T16:38:12.700Z,12.4
2023-05-16T16:40:25.014Z,12.4
2023-05-16T16:41:31.188Z,12.3
2023-05-16T16:42:37.256Z,12.2
2023-05-16T16:43:43.426Z,12.2
2023-05-16T16:44:49.727Z,12.2
2023-05-16T16:45:55.913Z,12.1
2023-05-16T16:47:02.238Z,12.1
2023-05-16T16:48:08.096Z,12.1
2023-05-16T16:49:14.260Z,12.1
2023-05-16T16:50:20.515Z,12.1
2023-05-16T16:51:26.532Z,12.2
2023-05-16T16:52:32.672Z,12.2
2023-05-16T16:53:38.930Z,12.2
2023-05-16T16:54:44.966Z,12.2
2023-05-16T16:56:57.248Z,12.2
2023-05-16T16:59:09.535Z,12.1
2023-05-16T17:01:20.975Z,12.1
2023-05-16T17:02:27.128Z,12
2023-05-16T17:04:39.322Z,11.9
2023-05-16T17:05:45.405Z,11.9
2023-05-16T17:06:51.683Z,11.9
2023-05-16T17:07:57.707Z,12
2023-05-16T17:09:03.840Z,12
2023-05-16T17:10:09.994Z,12.1
2023-05-16T17:11:16.157Z,12.1
2023-05-16T17:13:28.471Z,12
2023-05-16T17:15:40.785Z,11.9
2023-05-16T17:16:45.864Z,11.9
2023-05-16T17:17:52.001Z,11.8
2023-05-16T17:18:58.187Z,11.9
2023-05-16T17:21:10.434Z,11.8
2023-05-16T17:23:22.763Z,11.7
2023-05-16T17:25:35.001Z,11.6
2023-05-16T17:26:41.149Z,11.6
2023-05-16T17:27:47.312Z,11.6
2023-05-16T17:29:59.651Z,11.5
2023-05-16T17:31:04.868Z,11.5
2023-05-16T17:33:17.032Z,11.5
2023-05-16T17:34:23.163Z,11.5
2023-05-16T17:35:29.373Z,11.5
2023-05-16T17:37:41.639Z,11.4
2023-05-16T17:38:47.737Z,11.4
2023-05-16T17:39:53.927Z,11.4
2023-05-16T17:41:00.015Z,11.3
2023-05-16T17:42:06.207Z,11.4
2023-05-16T17:43:12.319Z,11.4
2023-05-16T17:45:24.637Z,11.4
2023-05-16T17:46:30.743Z,11.3
2023-05-16T17:47:35.986Z,11.3
2023-05-16T17:48:42.045Z,11.3
2023-05-16T17:52:00.513Z,11.2
2023-05-16T17:53:06.609Z,11.2
2023-05-16T17:55:18.903Z,11.2
2023-05-16T17:57:31.282Z,11.1
2023-05-16T17:58:37.330Z,11.1
2023-05-16T17:59:43.466Z,11.1
2023-05-16T18:00:49.614Z,11.2
2023-05-16T18:01:54.916Z,11.2
2023-05-16T18:03:00.933Z,11.1
2023-05-16T18:04:07.054Z,11.1
2023-05-16T18:05:13.218Z,11.1
2023-05-16T18:07:25.492Z,11.1
2023-05-16T18:08:31.686Z,11
2023-05-16T18:09:37.775Z,11.1
2023-05-16T18:10:43.966Z,11.1
2023-05-16T18:11:50.114Z,11
2023-05-16T18:12:56.225Z,11
2023-05-16T18:14:02.458Z,11
2023-05-16T18:15:08.493Z,11
2023-05-16T18:16:13.707Z,11
2023-05-16T18:17:19.805Z,11
2023-05-16T18:20:38.228Z,10.9
2023-05-16T18:21:44.371Z,10.9
2023-05-16T18:22:50.516Z,10.9
2023-05-16T18:23:56.654Z,10.9
2023-05-16T18:25:02.860Z,10.9
2023-05-16T18:26:09.117Z,10.8
2023-05-16T18:27:15.141Z,10.8
2023-05-16T18:28:21.226Z,10.8
2023-05-16T18:29:27.473Z,10.8
2023-05-16T18:30:32.590Z,10.8
2023-05-16T18:31:38.695Z,10.8
2023-05-16T18:32:44.821Z,10.8
2023-05-16T18:33:51.007Z,10.8
2023-05-16T18:36:03.251Z,10.7
2023-05-16T18:40:27.826Z,10.7
2023-05-16T18:41:33.953Z,10.7
2023-05-16T18:42:40.138Z,10.7
2023-05-16T18:43:46.263Z,10.7
2023-05-16T18:44:51.480Z,10.7
2023-05-16T18:45:57.549Z,10.7
2023-05-16T18:48:09.841Z,10.6
2023-05-16T18:49:16.010Z,10.6
2023-05-16T18:50:22.113Z,10.6
2023-05-16T18:53:40.661Z,10.5
2023-05-16T18:54:46.871Z,10.5
2023-05-16T18:55:52.985Z,10.5
2023-05-16T18:56:59.081Z,10.5
2023-05-16T18:58:05.127Z,10.5
2023-05-16T18:59:10.425Z,10.5
2023-05-16T19:01:22.662Z,10.4
2023-05-16T19:02:28.789Z,10.4
2023-05-16T19:03:34.876Z,10.4
2023-05-16T19:04:41.021Z,10.4
2023-05-16T19:05:47.140Z,10.4
2023-05-16T19:06:53.274Z,10.4
2023-05-16T19:07:59.633Z,10.3
2023-05-16T19:10:11.760Z,10.3
2023-05-16T19:11:17.958Z,10.3
2023-05-16T19:12:24.027Z,10.3
2023-05-16T19:13:29.320Z,10.3
2023-05-16T19:14:35.298Z,10.3
2023-05-16T19:16:47.581Z,10.2
2023-05-16T19:17:53.729Z,10.2
2023-05-16T19:18:59.883Z,10.2
2023-05-16T19:20:06.024Z,10.2
2023-05-16T19:21:12.168Z,10.1
2023-05-16T19:22:18.300Z,10.1
2023-05-16T19:25:36.741Z,10.1
2023-05-16T19:26:42.952Z,10.1
2023-05-16T19:27:49.245Z,10.1
2023-05-16T19:30:01.474Z,10.1
2023-05-16T19:31:07.588Z,10
2023-05-16T19:32:13.730Z,10
2023-05-16T19:34:26.003Z,10
2023-05-16T19:35:32.166Z,10
2023-05-16T19:36:38.309Z,10
2023-05-16T19:37:44.495Z,10
2023-05-16T19:39:56.737Z,9.9
2023-05-16T19:41:03.049Z,9.9
2023-05-16T19:42:09.075Z,9.8
2023-05-16T19:43:14.296Z,9.8
2023-05-16T19:44:20.435Z,9.8
2023-05-16T19:45:26.669Z,9.9
2023-05-16T19:47:38.933Z,9.8
2023-05-16T19:49:51.170Z,9.8
2023-05-16T19:50:57.328Z,9.8
2023-05-16T19:52:03.345Z,9.8
2023-05-16T19:54:15.596Z,9.8
2023-05-16T19:55:21.878Z,9.8
2023-05-16T19:56:28.078Z,9.8
2023-05-16T19:57:34.313Z,9.7
2023-05-16T20:00:52.577Z,9.7
2023-05-16T20:01:58.955Z,9.7
2023-05-16T20:04:11.032Z,9.7
2023-05-16T20:05:17.184Z,9.6
2023-05-16T20:06:23.398Z,9.6
2023-05-16T20:08:35.717Z,9.6
2023-05-16T20:09:41.878Z,9.5
2023-05-16T20:10:48.016Z,9.5
2023-05-16T20:11:53.049Z,9.5
2023-05-16T20:12:59.185Z,9.5
2023-05-16T20:15:11.454Z,9.5
2023-05-16T20:16:17.629Z,9.5
2023-05-16T20:19:36.123Z,9.4
2023-05-16T20:20:42.171Z,9.4
2023-05-16T20:22:54.514Z,9.3
2023-05-16T20:25:06.817Z,9.4
2023-05-16T20:26:11.907Z,9.4
2023-05-16T20:27:18.049Z,9.4
2023-05-16T20:28:24.208Z,9.4
2023-05-16T20:31:42.658Z,9.3
2023-05-16T20:33:54.920Z,9.3
2023-05-16T20:35:01.126Z,9.3
2023-05-16T20:36:07.212Z,9.4
2023-05-16T20:37:13.332Z,9.3
2023-05-16T20:40:31.766Z,9.4
2023-05-16T20:41:38.056Z,9.4
2023-05-16T20:42:44.192Z,9.4
2023-05-16T20:43:50.335Z,9.4
2023-05-16T20:44:56.467Z,9.4
2023-05-16T20:46:02.689Z,9.4
2023-05-16T20:48:14.983Z,9.4
2023-05-16T20:49:21.143Z,9.5
2023-05-16T20:50:27.293Z,9.5
2023-05-16T20:51:33.434Z,9.5
2023-05-16T20:53:45.770Z,9.5
2023-05-16T20:54:51.869Z,9.5
2023-05-16T20:55:57.075Z,9.4
2023-05-16T20:57:03.238Z,9.4
2023-05-16T20:58:09.322Z,9.4
2023-05-16T20:59:15.562Z,9.4
2023-05-16T21:00:21.647Z,9.4
2023-05-16T21:01:27.766Z,9.4
2023-05-16T21:02:33.960Z,9.4